createdAt,value
2022-11-16T00:00:36.816Z,7.60
2022-11-16T00:03:09.289Z,5.03
2022-11-16T00:05:41.115Z,7.38
2022-11-16T00:08:21.845Z,7.35
2022-11-16T00:10:54.747Z,9.45
2022-11-16T00:13:28.829Z,9.38
2022-11-16T00:16:01.013Z,9.50
2022-11-16T00:18:32.906Z,8.35
2022-11-16T00:21:08.941Z,130.98
2022-11-16T00:26:17.179Z,5.25
2022-11-16T00:28:50.756Z,5.57
2022-11-16T00:31:22.560Z,5.18
2022-11-16T00:33:55.192Z,4.38
2022-11-16T00:36:26.395Z,5.25
2022-11-16T00:39:00.398Z,4.80
2022-11-16T00:41:30.851Z,8.82
2022-11-16T00:44:07.534Z,3.60
2022-11-16T00:46:41.232Z,4.78
2022-11-16T00:49:12.421Z,5.40
2022-11-16T00:51:46.399Z,6.35
2022-11-16T00:54:19.797Z,4.72
2022-11-16T00:56:53.128Z,5.78
2022-11-16T00:59:28.663Z,5.45
2022-11-16T01:02:03.358Z,5.30
2022-11-16T01:04:32.868Z,6.15
2022-11-16T01:07:05.137Z,6.82
2022-11-16T01:09:38.265Z,7.18
2022-11-16T01:12:15.357Z,7.07
2022-11-16T01:14:48.001Z,3.97
2022-11-16T01:17:19.840Z,6.35
2022-11-16T11:20:04.749Z,44.53
2022-11-16T11:22:35.005Z,48.38
2022-11-16T11:25:05.253Z,49.92
2022-11-16T11:27:37.303Z,38.33
2022-11-16T11:30:07.521Z,42.22
2022-11-16T11:32:42.075Z,42.90
2022-11-16T11:35:25.067Z,37.55
2022-11-16T11:37:57.094Z,40.47
2022-11-16T11:40:27.762Z,36.55
2022-11-16T11:43:04.491Z,24.95
2022-11-16T11:45:44.008Z,28.67
2022-11-16T11:48:26.355Z,43.88
2022-11-16T11:51:00.717Z,41.00
2022-11-16T11:53:44.129Z,44.83
2022-11-16T11:56:14.494Z,55.45
2022-11-16T11:58:44.597Z,42.08
2022-11-16T12:01:55.513Z,47.05
2022-11-16T12:05:12.078Z,41.78
2022-11-16T12:07:58.289Z,36.58
2022-11-16T12:10:39.871Z,34.33
2022-11-16T12:13:27.396Z,34.83
2022-11-16T12:16:09.664Z,39.65
2022-11-16T12:18:50.368Z,37.20
2022-11-16T12:21:31.101Z,26.58
2022-11-16T12:24:20.203Z,30.75
2022-11-16T12:27:06.026Z,28.13
2022-11-16T12:29:46.565Z,34.55
2022-11-16T12:32:37.269Z,25.25
2022-11-16T12:35:19.911Z,27.15
2022-11-16T12:37:57.789Z,26.65
2022-11-16T12:40:43.510Z,30.02
2022-11-16T12:43:22.993Z,32.50
2022-11-16T12:46:00.678Z,27.33
2022-11-16T12:48:55.606Z,26.95
2022-11-16T12:51:42.595Z,35.03
2022-11-16T12:54:28.154Z,38.70
2022-11-16T12:57:06.667Z,38.50
2022-11-16T12:59:57.872Z,33.25
2022-11-16T13:02:40.702Z,27.02
2022-11-16T13:05:17.310Z,28.33
2022-11-16T13:07:49.526Z,35.78
2022-11-16T13:10:23.606Z,44.03
2022-11-16T13:13:21.909Z,46.20
2022-11-16T13:15:48.437Z,34.78
2022-11-16T13:18:22.353Z,45.80
2022-11-16T13:20:58.835Z,39.38
2022-11-16T13:23:49.557Z,30.23
2022-11-16T13:26:24.058Z,34.15
2022-11-16T13:29:01.436Z,28.70
2022-11-16T13:31:37.307Z,28.52
2022-11-16T13:34:14.489Z,31.60
2022-11-16T13:36:45.945Z,28.08
2022-11-16T13:39:22.006Z,38.85
2022-11-16T13:41:54.068Z,34.63
2022-11-16T13:44:31.824Z,31.00
2022-11-16T13:47:05.893Z,34.78
2022-11-16T13:49:37.507Z,21.85
2022-11-16T13:52:23.118Z,21.83
2022-11-16T13:54:56.089Z,23.00
2022-11-16T13:57:28.070Z,26.98
2022-11-16T14:00:12.618Z,24.25
2022-11-16T14:02:43.213Z,15.27
2022-11-16T14:05:39.419Z,13.23
2022-11-16T14:08:41.389Z,14.32
2022-11-16T14:11:35.608Z,13.63
2022-11-16T14:14:07.443Z,9.38
2022-11-16T14:16:58.738Z,12.32
2022-11-16T14:19:55.417Z,16.48
2022-11-16T14:22:52.379Z,13.27
2022-11-16T14:25:32.294Z,15.10
2022-11-16T14:28:31.144Z,12.68
2022-11-16T14:31:15.318Z,12.25
2022-11-16T14:33:51.924Z,12.05
2022-11-16T14:36:38.642Z,15.38
2022-11-16T14:39:28.740Z,13.98
2022-11-16T14:42:00.953Z,6.35
2022-11-16T14:44:33.605Z,14.43
2022-11-16T14:47:04.574Z,12.80
2022-11-16T14:49:38.163Z,11.80
2022-11-16T14:52:08.904Z,9.30
2022-11-16T14:54:43.425Z,8.52
2022-11-16T14:57:19.564Z,7.93
2022-11-16T14:59:48.760Z,12.40
2022-11-16T15:02:22.147Z,9.45
2022-11-16T15:04:54.652Z,7.93
2022-11-16T15:07:26.037Z,7.82
2022-11-16T15:09:58.901Z,11.05
2022-11-16T15:12:46.391Z,8.90
2022-11-16T15:15:18.645Z,15.32
2022-11-16T15:17:53.679Z,8.98
2022-11-16T15:20:26.594Z,15.40
2022-11-16T15:22:58.506Z,12.18
2022-11-16T15:25:30.234Z,11.38
2022-11-16T15:28:01.527Z,21.33
2022-11-16T15:30:33.437Z,9.52
2022-11-16T15:33:04.915Z,8.88
2022-11-16T15:35:37.036Z,8.50
2022-11-16T15:38:08.731Z,10.70
2022-11-16T15:40:38.210Z,13.68
2022-11-16T15:43:08.611Z,10.00
2022-11-16T15:45:39.382Z,8.77
2022-11-16T15:48:08.773Z,10.52
2022-11-16T15:50:39.493Z,10.90
2022-11-16T15:53:23.285Z,9.25
2022-11-16T15:55:52.577Z,12.27
2022-11-16T15:58:26.806Z,17.48
2022-11-16T16:00:57.151Z,14.80
2022-11-16T16:03:28.312Z,12.40
2022-11-16T16:05:58.957Z,20.02
2022-11-16T16:08:33.094Z,14.45
2022-11-16T16:11:13.038Z,16.58
2022-11-16T16:14:23.561Z,13.02
2022-11-16T16:16:53.749Z,11.77
2022-11-16T16:19:37.802Z,12.18
2022-11-16T16:22:15.836Z,11.93
2022-11-16T16:24:47.056Z,10.32
2022-11-16T16:27:18.861Z,17.83
2022-11-16T16:29:49.274Z,15.82
2022-11-16T16:32:27.425Z,15.90
2022-11-16T16:34:58.272Z,12.98
2022-11-16T16:37:30.406Z,24.65
2022-11-16T16:40:00.459Z,14.80
2022-11-16T16:42:29.816Z,15.10
2022-11-16T16:45:02.455Z,11.98
2022-11-16T16:47:32.737Z,17.88
2022-11-16T16:50:02.093Z,12.00
2022-11-16T16:52:33.835Z,12.57
2022-11-16T16:55:03.259Z,11.60
2022-11-16T16:57:32.488Z,11.02
2022-11-16T17:00:01.935Z,12.60
2022-11-16T17:02:31.294Z,11.52
2022-11-16T17:05:00.461Z,9.48
2022-11-16T17:07:29.816Z,15.35
2022-11-16T17:10:00.688Z,7.03
2022-11-16T17:12:30.004Z,9.10
2022-11-16T17:14:59.211Z,9.82
2022-11-16T17:17:28.688Z,11.10
2022-11-16T17:19:57.900Z,9.45
2022-11-16T17:22:27.123Z,10.23
2022-11-16T17:24:56.340Z,13.45
2022-11-16T17:27:27.141Z,12.65
2022-11-16T17:29:56.323Z,10.55
2022-11-16T17:32:25.547Z,13.73
2022-11-16T17:34:54.721Z,19.17
2022-11-16T17:37:23.784Z,17.20
2022-11-16T17:39:52.882Z,20.10
2022-11-16T17:42:21.959Z,18.77
2022-11-16T17:44:54.362Z,18.45
2022-11-16T17:47:23.424Z,11.40
2022-11-16T17:49:52.507Z,16.73
2022-11-16T17:52:22.321Z,12.48
2022-11-16T17:54:51.518Z,11.57
2022-11-16T17:57:20.686Z,10.27
2022-11-16T17:59:49.867Z,9.90
2022-11-16T18:02:20.533Z,7.00
2022-11-16T18:04:51.203Z,10.68
2022-11-16T18:07:20.870Z,9.60
2022-11-16T18:09:50.141Z,15.07
2022-11-16T18:12:19.389Z,16.00
2022-11-16T18:15:13.441Z,18.17
2022-11-16T18:17:39.385Z,19.77
2022-11-16T18:20:09.722Z,20.58
2022-11-16T18:22:38.931Z,20.40
2022-11-16T18:25:08.656Z,21.17
2022-11-16T18:27:37.872Z,21.75
2022-11-16T18:30:08.282Z,22.75
2022-11-16T18:32:39.017Z,27.00
2022-11-16T18:35:10.448Z,17.35
2022-11-16T18:37:39.648Z,18.00
2022-11-16T18:40:10.070Z,19.77
2022-11-16T18:42:39.480Z,17.27
2022-11-16T18:45:09.872Z,16.88
2022-11-16T18:47:40.786Z,18.13
2022-11-16T18:50:18.922Z,16.65
2022-11-16T18:52:49.437Z,15.57
2022-11-16T18:55:18.747Z,12.60
2022-11-16T18:57:47.938Z,10.05
2022-11-16T19:00:19.864Z,5.35
2022-11-16T19:02:50.645Z,5.93
2022-11-16T19:05:19.872Z,4.78
2022-11-16T19:07:49.099Z,3.97
2022-11-16T19:10:18.343Z,6.57
2022-11-16T19:12:47.505Z,5.05
2022-11-16T19:15:16.784Z,4.72
2022-11-16T19:18:14.238Z,4.25
2022-11-16T19:20:36.758Z,4.32
2022-11-16T19:23:06.585Z,4.63
2022-11-16T19:25:35.837Z,3.47
2022-11-16T19:28:05.786Z,3.45
2022-11-16T19:30:35.081Z,4.75
2022-11-16T19:33:04.548Z,5.57
2022-11-16T19:35:33.808Z,2.90
2022-11-16T19:38:04.548Z,4.45
2022-11-16T19:40:33.874Z,4.75
2022-11-16T19:43:03.087Z,5.32
2022-11-16T19:45:32.288Z,5.20
2022-11-16T19:48:02.156Z,2.97
2022-11-16T19:50:31.396Z,5.63
2022-11-16T19:53:00.580Z,4.95
2022-11-16T19:55:31.301Z,4.97
2022-11-16T19:58:00.524Z,4.88
2022-11-16T20:00:29.677Z,3.85
2022-11-16T20:02:59.364Z,2.67
2022-11-16T20:05:30.423Z,2.85
2022-11-16T20:07:59.582Z,2.05
2022-11-16T20:10:31.302Z,4.63
2022-11-16T20:13:00.637Z,4.18
2022-11-16T20:15:29.809Z,5.55
2022-11-16T20:17:59.001Z,5.25
2022-11-16T20:20:28.223Z,4.22
2022-11-16T20:22:58.085Z,2.72
2022-11-16T20:25:27.323Z,3.00
2022-11-16T20:27:58.084Z,3.28
2022-11-16T20:30:27.248Z,3.75
2022-11-16T20:32:56.422Z,6.45
2022-11-16T20:35:25.599Z,2.72
2022-11-16T20:37:54.838Z,3.28
2022-11-16T20:40:24.095Z,4.50
2022-11-16T20:42:53.351Z,4.25
2022-11-16T20:45:24.097Z,4.13
2022-11-16T20:47:53.323Z,4.38
2022-11-16T20:50:22.586Z,7.85
2022-11-16T20:52:52.989Z,3.95
2022-11-16T20:55:22.237Z,6.60
2022-11-16T20:57:51.403Z,9.43
2022-11-16T21:00:21.178Z,6.72
2022-11-16T21:02:51.908Z,9.63
2022-11-16T21:05:21.125Z,9.65
2022-11-16T21:07:50.389Z,14.25
2022-11-16T21:10:22.759Z,22.30
2022-11-16T21:13:08.724Z,24.02
2022-11-16T21:15:38.076Z,20.73
2022-11-16T21:18:08.887Z,31.90
2022-11-16T21:20:38.172Z,31.08
2022-11-16T21:23:07.489Z,52.80
2022-11-16T21:25:36.743Z,25.70
2022-11-16T21:28:06.127Z,22.25
2022-11-16T21:30:35.413Z,27.23
2022-11-16T21:33:04.592Z,55.25
2022-11-16T21:35:35.302Z,122.43
2022-11-16T21:38:04.516Z,29.33
2022-11-16T21:40:33.733Z,10.95
2022-11-16T21:43:02.919Z,11.02
2022-11-16T21:45:32.140Z,6.93
2022-11-16T21:48:01.364Z,5.22
2022-11-16T21:50:32.169Z,3.20
2022-11-16T21:53:03.376Z,2.65
2022-11-16T21:55:32.757Z,4.22
2022-11-16T21:58:03.923Z,5.25
2022-11-16T22:00:33.490Z,4.95
2022-11-16T22:03:02.768Z,7.82
2022-11-16T22:05:49.207Z,2.60
2022-11-16T22:08:20.003Z,1.33
2022-11-16T22:10:52.666Z,3.88
2022-11-16T22:13:22.362Z,3.67
2022-11-16T22:15:51.552Z,1.85
2022-11-16T22:18:20.788Z,3.20
2022-11-16T22:20:50.888Z,2.78
2022-11-16T22:23:23.315Z,7.30
2022-11-16T22:25:53.050Z,3.67
2022-11-16T22:28:22.643Z,5.15
2022-11-16T22:30:52.407Z,5.70
2022-11-16T22:33:21.942Z,5.85
2022-11-16T22:35:51.110Z,3.20
2022-11-16T22:38:21.911Z,9.75
2022-11-16T22:40:52.619Z,3.35
2022-11-16T22:43:22.973Z,3.80
2022-11-16T22:45:52.162Z,5.13
2022-11-16T22:48:21.372Z,5.22
2022-11-16T22:50:50.542Z,8.40
2022-11-16T22:53:21.266Z,6.00
2022-11-16T22:55:50.514Z,6.63
2022-11-16T22:58:19.744Z,7.70
2022-11-16T23:00:49.573Z,3.75
2022-11-16T23:03:18.766Z,4.65
2022-11-16T23:05:48.150Z,8.10
2022-11-16T23:08:17.366Z,5.03
2022-11-16T23:11:01.624Z,7.53
2022-11-16T23:13:47.828Z,7.35
2022-11-16T23:16:17.084Z,6.97
2022-11-16T23:18:49.139Z,9.77
2022-11-16T23:21:35.220Z,11.70
2022-11-16T23:24:20.688Z,11.93
2022-11-16T23:27:08.682Z,11.23
2022-11-16T23:29:37.992Z,8.65
2022-11-16T23:32:07.773Z,9.98
2022-11-16T23:34:37.234Z,8.38
2022-11-16T23:37:06.891Z,8.13
2022-11-16T23:39:36.521Z,8.40
2022-11-16T23:42:24.308Z,6.47
2022-11-16T23:44:53.594Z,9.52
2022-11-16T23:47:22.876Z,7.65
2022-11-16T23:49:52.065Z,10.63
2022-11-16T23:52:21.241Z,8.77
2022-11-16T23:54:50.461Z,7.57
2022-11-16T23:57:21.254Z,11.07
2022-11-16T23:59:50.433Z,6.20
